VLG87ES LEPA-LIRF
Flight info
| Callsign | VLG87ES |
|---|---|
| Flight time | N/A |
| Altitude | 38000 |
| Route | MORSS DCT BAVON DCT ORKUM DCT ELSAG DCT ALG DCT ROMPO DCT RUXOP DCT BATOX DCT TINTO L5 VALMA |
| Aircraft | A320/M-SDE3FGHIRWY/LB1 |
Departure
| Time | 2026-05-04 16:30 |
|---|---|
| Airport | Palma de Mallorca Airport (LEPA) |
Arrival
| Time | N/A |
|---|---|
| Airport | Rome–Fiumicino Leonardo da Vinci International Airport (LIRF) |
| Time | Latitude | Longitude | Altitude | Speed | Heading |
|---|---|---|---|---|---|
| 2026-05-04 16:07 | 39.54650 | 2.73425 | 38 ft | 0 kts | 258° |
| 2026-05-04 16:18 | 39.54651 | 2.73430 | 38 ft | 2 kts | 257° |
| 2026-05-04 16:18 | 39.54654 | 2.73451 | 38 ft | 2 kts | 257° |
| 2026-05-04 16:19 | 39.54680 | 2.73502 | 35 ft | 2 kts | 178° |
| 2026-05-04 16:19 | 39.54698 | 2.73496 | 36 ft | 0 kts | 149° |
| 2026-05-04 16:21 | 39.54668 | 2.73694 | 38 ft | 18 kts | 60° |
| 2026-05-04 16:22 | 39.54807 | 2.73979 | 38 ft | 16 kts | 57° |
| 2026-05-04 16:22 | 39.55028 | 2.73968 | 36 ft | 14 kts | 328° |
| 2026-05-04 16:23 | 39.55438 | 2.73643 | 38 ft | 28 kts | 328° |
| 2026-05-04 16:24 | 39.55820 | 2.73852 | 36 ft | 26 kts | 58° |
| 2026-05-04 16:25 | 39.55975 | 2.74179 | 38 ft | 17 kts | 58° |
| 2026-05-04 16:26 | 39.56196 | 2.74427 | 38 ft | 13 kts | 328° |
| 2026-05-04 16:26 | 39.56245 | 2.74302 | 37 ft | 0 kts | 238° |
| 2026-05-04 16:29 | 39.55203 | 2.72103 | 328 ft | 150 kts | 238° |
| 2026-05-04 16:30 | 39.53476 | 2.68400 | 1961 ft | 180 kts | 233° |
| 2026-05-04 16:31 | 39.51063 | 2.67156 | 2837 ft | 222 kts | 165° |
| 2026-05-04 16:31 | 39.48753 | 2.72695 | 5151 ft | 270 kts | 103° |
| 2026-05-04 16:32 | 39.47867 | 2.80370 | 7658 ft | 298 kts | 101° |
| 2026-05-04 16:33 | 39.47280 | 2.85771 | 9444 ft | 307 kts | 102° |
| 2026-05-04 16:33 | 39.46641 | 2.91454 | 10531 ft | 339 kts | 102° |
| 2026-05-04 16:34 | 39.45935 | 2.97666 | 11775 ft | 357 kts | 101° |
| 2026-05-04 16:34 | 39.45578 | 3.00842 | 12520 ft | 361 kts | 101° |
| 2026-05-04 16:35 | 39.44465 | 3.10678 | 14637 ft | 374 kts | 101° |
| 2026-05-04 16:35 | 39.43359 | 3.20863 | 16559 ft | 387 kts | 94° |
| 2026-05-04 16:36 | 39.43470 | 3.24317 | 17170 ft | 393 kts | 83° |
| 2026-05-04 16:36 | 39.45221 | 3.31060 | 18417 ft | 400 kts | 59° |
| 2026-05-04 16:37 | 39.48112 | 3.37292 | 19530 ft | 408 kts | 58° |
| 2026-05-04 16:37 | 39.49565 | 3.40455 | 20094 ft | 412 kts | 58° |
| 2026-05-04 16:37 | 39.52523 | 3.46925 | 21162 ft | 420 kts | 58° |
| 2026-05-04 16:38 | 39.55534 | 3.53499 | 22368 ft | 429 kts | 58° |
| 2026-05-04 16:39 | 39.60165 | 3.63623 | 23946 ft | 441 kts | 58° |
| 2026-05-04 16:39 | 39.63292 | 3.70503 | 24830 ft | 446 kts | 59° |
| 2026-05-04 16:40 | 39.66441 | 3.77445 | 25719 ft | 451 kts | 59° |
| 2026-05-04 16:40 | 39.69645 | 3.84486 | 26599 ft | 456 kts | 59° |
| 2026-05-04 16:41 | 39.72898 | 3.91650 | 27438 ft | 462 kts | 60° |
| 2026-05-04 16:41 | 39.77799 | 4.02535 | 28682 ft | 469 kts | 60° |
| 2026-05-04 16:42 | 39.82772 | 4.13606 | 29926 ft | 478 kts | 60° |
| 2026-05-04 16:43 | 39.85991 | 4.21217 | 30659 ft | 481 kts | 68° |
| 2026-05-04 16:43 | 39.88004 | 4.29511 | 31363 ft | 482 kts | 77° |
| 2026-05-04 16:43 | 39.88870 | 4.33732 | 31782 ft | 482 kts | 77° |
| 2026-05-04 16:44 | 39.92345 | 4.50452 | 33873 ft | 475 kts | 78° |
| 2026-05-04 16:45 | 39.94056 | 4.58765 | 34723 ft | 473 kts | 77° |
| 2026-05-04 16:46 | 39.96636 | 4.71183 | 35794 ft | 473 kts | 76° |
| 2026-05-04 16:46 | 39.98521 | 4.79359 | 36466 ft | 474 kts | 74° |
| 2026-05-04 16:47 | 40.00462 | 4.87597 | 37150 ft | 474 kts | 74° |
| 2026-05-04 16:47 | 40.02350 | 4.95835 | 37781 ft | 474 kts | 75° |
| 2026-05-04 16:48 | 40.05138 | 5.08244 | 37963 ft | 474 kts | 75° |
| 2026-05-04 16:48 | 40.06054 | 5.12325 | 37958 ft | 474 kts | 75° |
| 2026-05-04 16:49 | 40.09764 | 5.28817 | 37957 ft | 473 kts | 75° |
| 2026-05-04 16:50 | 40.13433 | 5.45323 | 37971 ft | 473 kts | 75° |
| 2026-05-04 16:51 | 40.16177 | 5.57715 | 37979 ft | 473 kts | 75° |
| 2026-05-04 16:52 | 40.19801 | 5.74246 | 37989 ft | 473 kts | 75° |
| 2026-05-04 16:53 | 40.22517 | 5.86651 | 37991 ft | 472 kts | 76° |
| 2026-05-04 16:54 | 40.26083 | 6.03163 | 37986 ft | 472 kts | 76° |